createdAt,value
2023-03-10T00:02:49.329Z,96159.13
2023-03-10T00:07:52.679Z,96134.50
2023-03-10T00:12:56.134Z,96035.56
2023-03-10T00:18:00.932Z,96035.56
2023-03-10T00:23:04.521Z,96095.00
2023-03-10T00:28:08.011Z,96034.59
2023-03-10T00:33:14.582Z,95888.28
2023-03-10T00:38:18.075Z,96073.50
2023-03-10T00:43:21.609Z,96067.03
2023-03-10T00:48:27.016Z,96061.66
2023-03-10T00:53:34.408Z,96064.53
2023-03-10T00:58:37.983Z,96058.63
2023-03-10T01:03:43.063Z,95732.09
2023-03-10T01:08:46.645Z,96063.44
2023-03-10T01:13:50.607Z,96025.47
2023-03-10T01:18:55.687Z,95993.00
2023-03-10T01:23:59.955Z,95961.53
2023-03-10T01:29:03.377Z,96009.31
2023-03-10T01:34:08.187Z,96006.69
2023-03-10T01:39:11.912Z,95981.81
2023-03-10T01:44:20.053Z,95938.31
2023-03-10T01:49:34.847Z,95927.88
2023-03-10T01:54:46.571Z,95963.03
2023-03-10T01:59:51.128Z,95982.38
2023-03-10T02:04:56.798Z,95978.13
2023-03-10T02:10:00.541Z,95945.66
2023-03-10T02:15:04.880Z,95946.72
2023-03-10T02:20:23.637Z,95962.72
2023-03-10T02:25:36.420Z,95974.81
2023-03-10T02:30:44.619Z,95961.81
2023-03-10T02:35:48.336Z,95842.53
2023-03-10T02:40:57.463Z,95892.16
2023-03-10T02:46:08.913Z,95898.13
2023-03-10T02:51:21.246Z,95512.13
2023-03-10T02:56:25.264Z,95858.69
2023-03-10T03:01:31.261Z,95705.44
2023-03-10T03:06:36.425Z,95919.81
2023-03-10T03:11:39.934Z,95910.13
2023-03-10T03:16:47.011Z,95960.72
2023-03-10T03:21:50.949Z,95779.06
2023-03-10T03:26:54.934Z,95694.91
2023-03-10T03:32:03.625Z,95912.84
2023-03-10T03:37:10.716Z,95761.88
2023-03-10T03:42:16.314Z,95589.91
2023-03-10T03:47:26.604Z,95856.63
2023-03-10T03:52:30.266Z,95854.63
2023-03-10T03:57:34.551Z,95884.78
2023-03-10T04:03:07.509Z,95852.53
2023-03-10T04:08:13.333Z,95837.91
2023-03-10T04:13:17.027Z,95927.97
2023-03-10T04:18:22.221Z,95815.94
2023-03-10T04:23:26.324Z,95869.16
2023-03-10T04:28:30.321Z,95872.91
2023-03-10T04:33:35.479Z,95673.66
2023-03-10T04:38:39.364Z,95867.25
2023-03-10T04:43:47.067Z,95552.59
2023-03-10T04:48:53.209Z,95873.06
2023-03-10T04:53:57.369Z,95868.69
2023-03-10T04:59:04.972Z,95831.84
2023-03-10T05:04:11.542Z,95851.88
2023-03-10T05:09:15.646Z,95864.72
2023-03-10T05:14:19.769Z,95849.19
2023-03-10T05:19:26.168Z,95815.53
2023-03-10T05:24:32.809Z,95791.66
2023-03-10T05:29:36.477Z,95806.72
2023-03-10T05:34:49.248Z,95756.63
2023-03-10T05:39:53.264Z,95758.19
2023-03-10T05:44:58.640Z,95796.41
2023-03-10T05:50:03.904Z,95816.34
2023-03-10T05:55:09.223Z,95792.38
2023-03-10T06:00:14.707Z,95803.66
2023-03-10T06:05:23.161Z,95716.13
2023-03-10T06:10:26.829Z,95659.78
2023-03-10T06:15:31.192Z,95740.66
2023-03-10T06:20:36.016Z,95636.97
2023-03-10T06:25:39.643Z,95756.97
2023-03-10T06:30:43.137Z,95663.66
2023-03-10T06:35:48.036Z,95740.13
2023-03-10T06:40:51.855Z,95745.41
2023-03-10T06:45:55.538Z,95704.50
2023-03-10T06:51:00.496Z,95670.06
2023-03-10T06:56:06.871Z,95736.31
2023-03-10T07:01:20.788Z,95742.84
2023-03-10T07:06:26.504Z,95736.13
2023-03-10T07:11:30.092Z,95724.72
2023-03-10T07:16:33.595Z,95748.22
2023-03-10T07:21:40.049Z,95556.41
2023-03-10T07:26:43.629Z,95656.88
2023-03-10T07:31:46.984Z,95702.34
2023-03-10T07:36:51.983Z,95774.78
2023-03-10T07:41:55.561Z,95618.75
2023-03-10T07:46:59.133Z,95756.22
2023-03-10T07:52:04.224Z,95704.78
2023-03-10T07:57:07.794Z,95770.19
2023-03-10T08:02:13.380Z,95746.75
2023-03-10T08:07:18.239Z,95667.53
2023-03-10T08:12:22.559Z,95732.19
2023-03-10T08:17:30.660Z,95680.03
2023-03-10T08:22:35.537Z,95815.09
2023-03-10T08:27:39.124Z,95804.06
2023-03-10T08:32:42.633Z,95815.47
2023-03-10T08:37:47.739Z,95803.59
2023-03-10T08:42:51.674Z,95780.41
2023-03-10T08:47:55.163Z,95734.13
2023-03-10T08:53:00.251Z,95821.69
2023-03-10T08:58:03.815Z,95556.34
2023-03-10T09:03:07.378Z,95792.00
2023-03-10T09:08:12.587Z,95759.25
2023-03-10T09:13:16.382Z,95770.94
2023-03-10T09:18:20.710Z,95822.06
2023-03-10T09:23:25.589Z,95603.09
2023-03-10T09:28:29.704Z,95778.34
2023-03-10T09:33:33.286Z,95843.38
2023-03-10T09:38:38.333Z,95785.69
2023-03-10T09:43:50.536Z,95836.59
2023-03-10T09:49:01.483Z,95868.19
2023-03-10T09:54:28.990Z,95847.78
2023-03-10T09:59:38.208Z,95849.88
2023-03-10T10:04:43.225Z,95863.63
2023-03-10T10:09:53.339Z,95740.44
2023-03-10T10:14:59.925Z,95846.19
2023-03-10T10:20:07.110Z,95765.78
2023-03-10T10:25:19.365Z,95849.88
2023-03-10T10:30:36.114Z,95852.94
2023-03-10T10:35:41.605Z,95851.53
2023-03-10T10:40:52.461Z,95854.78
2023-03-10T10:45:58.345Z,95841.78
2023-03-10T10:51:02.356Z,95848.75
2023-03-10T10:56:15.355Z,95881.47
2023-03-10T11:01:18.836Z,95817.88
2023-03-10T11:06:27.158Z,95863.19
2023-03-10T11:11:39.789Z,95831.94
2023-03-10T11:16:53.241Z,95802.66
2023-03-10T11:22:03.841Z,95863.84
2023-03-10T11:27:20.098Z,95869.13
2023-03-10T11:32:32.232Z,95875.91
2023-03-10T11:37:46.866Z,95825.53
2023-03-10T11:43:01.274Z,95730.91
2023-03-10T11:48:18.249Z,95856.34
2023-03-10T11:53:34.250Z,95819.63
2023-03-10T11:58:47.443Z,95870.84
2023-03-10T12:03:59.371Z,95806.09
2023-03-10T12:09:05.526Z,95768.94
2023-03-10T12:14:15.635Z,95779.34
2023-03-10T12:19:19.079Z,95865.06
2023-03-10T12:24:46.109Z,95847.19
2023-03-10T12:29:51.028Z,95849.50
2023-03-10T12:35:25.254Z,95777.72
2023-03-10T12:40:51.661Z,95855.25
2023-03-10T12:46:01.422Z,95596.44
2023-03-10T12:51:13.040Z,95866.00
2023-03-10T12:56:23.259Z,95824.31
2023-03-10T13:01:36.666Z,95837.03
2023-03-10T13:06:42.909Z,95842.06
2023-03-10T13:11:51.636Z,95763.41
2023-03-10T13:17:00.196Z,95848.03
2023-03-10T13:22:06.306Z,95862.69
2023-03-10T13:27:14.468Z,95832.94
2023-03-10T13:32:21.036Z,95841.00
2023-03-10T13:37:25.091Z,95881.91
2023-03-10T13:42:42.985Z,95881.75
2023-03-10T13:47:48.538Z,95887.88
2023-03-10T13:52:57.908Z,95887.22
2023-03-10T13:58:08.467Z,95707.94
2023-03-10T14:03:15.463Z,95843.78
2023-03-10T14:08:27.879Z,95747.84
2023-03-10T14:13:45.474Z,95836.81
2023-03-10T14:18:50.341Z,95936.13
2023-03-10T14:23:57.018Z,95891.88
2023-03-10T14:29:02.294Z,95896.56
2023-03-10T14:34:07.204Z,95995.59
2023-03-10T14:39:10.924Z,95830.00
2023-03-10T14:44:14.814Z,95941.19
2023-03-10T14:49:23.834Z,95918.84
2023-03-10T14:54:27.568Z,95707.22
2023-03-10T14:59:31.247Z,95966.63
2023-03-10T15:04:36.609Z,96009.47
2023-03-10T15:09:40.283Z,95740.09
2023-03-10T15:14:47.791Z,95994.69
2023-03-10T15:19:52.603Z,95978.94
2023-03-10T15:24:56.166Z,96060.50
2023-03-10T15:29:59.787Z,95979.66
2023-03-10T15:35:05.023Z,96029.88
2023-03-10T15:40:10.989Z,96056.84
2023-03-10T15:45:15.806Z,96065.66
2023-03-10T15:50:22.655Z,96071.94
2023-03-10T15:55:29.108Z,96097.47
2023-03-10T16:00:32.637Z,96054.38
2023-03-10T16:05:37.756Z,96135.84
2023-03-10T16:10:41.630Z,96098.44
2023-03-10T16:15:45.105Z,96165.06
2023-03-10T16:20:58.532Z,95882.34
2023-03-10T16:47:59.990Z,95884.00
2023-03-10T16:53:06.278Z,96138.56
2023-03-10T16:58:10.035Z,96195.53
2023-03-10T17:03:15.322Z,96165.16
2023-03-10T17:08:19.421Z,96196.94
2023-03-10T17:13:23.230Z,96079.31
2023-03-10T17:18:28.321Z,95870.31
2023-03-10T17:23:32.393Z,96166.13
2023-03-10T17:28:36.435Z,96230.94
2023-03-10T17:33:42.596Z,96232.09
2023-03-10T17:38:47.395Z,95931.56
2023-03-10T17:43:52.430Z,96005.72
2023-03-10T17:48:58.307Z,96131.50
2023-03-10T17:54:03.172Z,96234.31
2023-03-10T17:59:07.179Z,96301.50
2023-03-10T18:04:12.669Z,96259.66
2023-03-10T18:09:16.693Z,96296.88
2023-03-10T18:14:20.566Z,96202.06
2023-03-10T18:19:25.421Z,96283.13
2023-03-10T18:24:28.822Z,96285.72
2023-03-10T18:29:32.420Z,96317.72
2023-03-10T18:34:37.692Z,96262.06
2023-03-10T18:39:41.441Z,96191.09
2023-03-10T18:44:46.837Z,96257.31
2023-03-10T18:49:51.831Z,96103.63
2023-03-10T18:54:55.264Z,96237.22
2023-03-10T19:00:00.788Z,96200.63
2023-03-10T19:05:06.419Z,96283.06
2023-03-10T19:10:12.852Z,96258.94
2023-03-10T19:15:18.735Z,96370.00
2023-03-10T19:20:23.866Z,96024.09
2023-03-10T19:25:27.312Z,96277.75
2023-03-10T19:30:31.682Z,96343.94
2023-03-10T19:35:36.590Z,96409.78
2023-03-10T19:40:40.196Z,96391.59
2023-03-10T19:45:43.626Z,96396.34
2023-03-10T19:50:54.046Z,96438.47
2023-03-10T19:55:59.883Z,96461.59
2023-03-10T20:01:03.615Z,96489.84
2023-03-10T20:06:08.760Z,96176.94
2023-03-10T20:11:14.765Z,96507.38
2023-03-10T20:16:20.151Z,96541.66
2023-03-10T20:21:25.582Z,96577.13
2023-03-10T20:26:29.127Z,96567.31
2023-03-10T20:31:34.107Z,96594.44
2023-03-10T20:36:40.037Z,96580.09
2023-03-10T20:41:45.069Z,96344.34
2023-03-10T20:46:48.685Z,96618.56
2023-03-10T20:51:53.574Z,96424.66
2023-03-10T20:56:57.522Z,96466.59
2023-03-10T21:02:01.291Z,96697.81
2023-03-10T21:07:06.487Z,96714.88
2023-03-10T21:12:10.370Z,96796.38
2023-03-10T21:17:14.573Z,96813.13
2023-03-10T21:22:19.566Z,96781.25
2023-03-10T21:27:27.195Z,96664.81
2023-03-10T21:32:30.669Z,96741.47
2023-03-10T21:37:37.870Z,96859.03
2023-03-10T21:42:42.884Z,96762.41
2023-03-10T21:47:46.600Z,96853.00
2023-03-10T21:52:51.895Z,96850.91
2023-03-10T21:57:55.777Z,96894.00
2023-03-10T22:02:59.483Z,96879.38
2023-03-10T22:08:04.900Z,96717.66
2023-03-10T22:13:08.384Z,96902.19
2023-03-10T22:18:12.020Z,96866.22
2023-03-10T22:23:17.126Z,96920.22
2023-03-10T22:28:20.701Z,96865.31
2023-03-10T22:33:24.245Z,96784.41
2023-03-10T22:38:29.175Z,96869.34
2023-03-10T22:43:32.786Z,96857.44
2023-03-10T22:48:36.402Z,96942.72
2023-03-10T22:53:41.329Z,96739.00
2023-03-10T22:58:44.976Z,96942.09
2023-03-10T23:03:48.787Z,96885.69
2023-03-10T23:08:53.999Z,96920.34
2023-03-10T23:14:01.825Z,96968.97
2023-03-10T23:19:08.370Z,96975.47
2023-03-10T23:24:13.482Z,96988.25
2023-03-10T23:29:17.009Z,97045.06
2023-03-10T23:34:20.462Z,96957.00
2023-03-10T23:39:25.492Z,96989.78
2023-03-10T23:44:28.957Z,97022.81
2023-03-10T23:49:33.262Z,96956.31
2023-03-10T23:54:38.411Z,97034.06
2023-03-10T23:59:44.265Z,96910.75
